Time;durP1;ratioP1;P1;durP2;ratioP2;P2;SDS_P1;SDS_P2;PMS_P1;PMS_P2;Temp;Humidity;BMP_temperature;BMP_pressure;BME280_temperature;BME280_humidity;BME280_pressure;Samples;Min_cycle;Max_cycle;Signal;HPM_P1;HPM_P2
2021/09/12 00:01:50;;;;;;;1.60;0.30;;;24.00;46.50;;;;;;4931113;29;20428;-58
2021/09/12 00:04:18;;;;;;;1.27;0.65;;;24.00;46.50;;;;;;4930788;29;20091;-59
2021/09/12 00:06:47;;;;;;;2.70;0.73;;;24.00;46.60;;;;;;4930552;29;20075;-58
2021/09/12 00:09:15;;;;;;;1.10;0.32;;;24.00;46.70;;;;;;4930447;29;20047;-59
2021/09/12 00:11:42;;;;;;;0.63;0.20;;;24.00;46.60;;;;;;4912567;29;20138;-59
2021/09/12 00:14:09;;;;;;;6.00;0.63;;;23.90;46.60;;;;;;4930612;29;20048;-59
2021/09/12 00:16:36;;;;;;;2.95;0.70;;;23.90;46.70;;;;;;4929716;29;20047;-60
2021/09/12 00:19:03;;;;;;;1.50;0.47;;;23.90;46.70;;;;;;4930681;29;20615;-59
2021/09/12 00:21:30;;;;;;;0.77;0.30;;;23.90;46.60;;;;;;4927854;29;20049;-59
2021/09/12 00:24:00;;;;;;;1.88;0.20;;;23.90;46.60;;;;;;4930396;29;20051;-60
2021/09/12 00:26:27;;;;;;;3.67;0.95;;;23.90;46.70;;;;;;4924613;29;20051;-60
2021/09/12 00:29:01;;;;;;;0.52;0.52;;;23.80;46.80;;;;;;4930335;29;20043;-60
2021/09/12 00:31:28;;;;;;;1.52;0.30;;;23.80;46.90;;;;;;4928670;29;20130;-60
2021/09/12 00:33:55;;;;;;;3.25;0.98;;;23.70;46.90;;;;;;4930252;29;20051;-60
2021/09/12 00:36:22;;;;;;;1.75;0.20;;;23.70;47.00;;;;;;4930043;29;20380;-60
2021/09/12 00:38:49;;;;;;;3.05;0.70;;;23.70;47.10;;;;;;4930230;29;20036;-60
2021/09/12 00:41:17;;;;;;;0.60;0.30;;;23.70;47.20;;;;;;4931152;29;20126;-60
2021/09/12 00:43:45;;;;;;;2.63;0.35;;;23.70;47.30;;;;;;4927673;29;20056;-60
2021/09/12 00:46:12;;;;;;;1.23;0.40;;;23.70;47.50;;;;;;4927038;29;20039;-61
2021/09/12 00:48:39;;;;;;;3.63;0.45;;;23.60;47.40;;;;;;4922880;29;20044;-60
2021/09/12 00:51:06;;;;;;;1.30;0.55;;;23.60;47.60;;;;;;4929363;29;20901;-61
2021/09/12 00:53:37;;;;;;;2.95;0.68;;;23.60;47.60;;;;;;4929650;29;20048;-60
2021/09/12 00:56:05;;;;;;;3.58;0.75;;;23.60;47.70;;;;;;4930597;29;20052;-60
2021/09/12 00:58:36;;;;;;;1.17;0.70;;;23.60;47.70;;;;;;4929518;29;20054;-61
2021/09/12 01:01:03;;;;;;;1.25;0.40;;;23.60;47.70;;;;;;4928479;29;20521;-60
2021/09/12 01:03:30;;;;;;;3.17;0.65;;;23.60;47.80;;;;;;4930039;29;20123;-60
2021/09/12 01:05:57;;;;;;;1.95;0.50;;;23.60;47.60;;;;;;4929916;29;20131;-60
2021/09/12 01:08:24;;;;;;;0.55;0.55;;;23.60;47.60;;;;;;4927488;29;20048;-60
2021/09/12 01:10:51;;;;;;;2.63;0.60;;;23.60;47.50;;;;;;4930477;29;20571;-60
2021/09/12 01:13:18;;;;;;;2.70;0.88;;;23.50;47.30;;;;;;4929778;29;20050;-59
2021/09/12 01:15:48;;;;;;;0.98;0.45;;;23.50;47.30;;;;;;4929610;29;20473;-60
2021/09/12 01:18:15;;;;;;;2.70;0.75;;;23.50;47.30;;;;;;4929246;29;20046;-59
2021/09/12 01:20:42;;;;;;;2.00;0.60;;;23.50;47.20;;;;;;4929776;29;20091;-59
2021/09/12 01:23:09;;;;;;;1.42;0.77;;;23.40;47.20;;;;;;4917248;29;20584;-60
2021/09/12 01:25:38;;;;;;;3.15;0.55;;;23.40;47.20;;;;;;4931631;29;20040;-60
2021/09/12 01:28:06;;;;;;;3.55;1.13;;;23.40;47.20;;;;;;4931104;29;20415;-60
2021/09/12 01:30:33;;;;;;;0.50;0.30;;;23.40;47.30;;;;;;4933440;29;20036;-59
2021/09/12 01:33:00;;;;;;;1.67;0.90;;;23.40;47.30;;;;;;4933518;29;20048;-59
2021/09/12 01:35:27;;;;;;;3.42;0.63;;;23.40;47.30;;;;;;4931921;29;20420;-59
2021/09/12 01:37:54;;;;;;;0.82;0.40;;;23.40;47.30;;;;;;4933266;29;20067;-59
2021/09/12 01:40:21;;;;;;;3.42;0.50;;;23.40;47.40;;;;;;4933297;29;20039;-59
2021/09/12 01:42:50;;;;;;;1.40;0.45;;;23.40;47.50;;;;;;4933127;29;20047;-59
2021/09/12 01:45:17;;;;;;;3.17;0.65;;;23.40;47.60;;;;;;4933221;29;20043;-59
2021/09/12 01:47:46;;;;;;;1.83;0.90;;;23.40;47.50;;;;;;4933036;29;20070;-59
2021/09/12 01:50:15;;;;;;;2.78;0.60;;;23.40;47.50;;;;;;4934712;29;20130;-60
2021/09/12 01:52:42;;;;;;;1.30;0.60;;;23.30;47.40;;;;;;4920401;29;20125;-59
2021/09/12 01:55:11;;;;;;;3.33;0.65;;;23.30;47.50;;;;;;4927625;29;20510;-60
2021/09/12 01:57:38;;;;;;;5.22;1.75;;;23.30;47.60;;;;;;4932992;29;20123;-60
2021/09/12 02:00:08;;;;;;;3.15;1.13;;;23.30;47.70;;;;;;4932632;29;20039;-60
2021/09/12 02:02:35;;;;;;;2.53;1.92;;;23.30;47.70;;;;;;4932918;29;20047;-60
2021/09/12 02:05:03;;;;;;;8.48;3.80;;;23.30;47.80;;;;;;4929358;29;20040;-59
2021/09/12 02:07:30;;;;;;;4.18;1.55;;;23.40;47.80;;;;;;4930153;29;20130;-60
2021/09/12 02:09:57;;;;;;;3.70;2.58;;;23.30;47.70;;;;;;4932688;29;20039;-60
2021/09/12 02:12:25;;;;;;;5.25;2.15;;;23.40;47.70;;;;;;4931871;29;20043;-60
2021/09/12 02:14:52;;;;;;;7.20;1.95;;;23.40;47.70;;;;;;4932567;29;20044;-59
2021/09/12 02:17:22;;;;;;;2.65;0.98;;;23.40;47.60;;;;;;4934240;29;20048;-60
2021/09/12 02:19:49;;;;;;;4.63;0.90;;;23.40;47.40;;;;;;4932944;29;20048;-61
2021/09/12 02:22:16;;;;;;;3.78;0.70;;;23.40;47.30;;;;;;4932129;29;20493;-60
2021/09/12 02:24:43;;;;;;;1.67;0.60;;;23.40;47.20;;;;;;4932414;29;20138;-60
2021/09/12 02:27:10;;;;;;;5.55;1.48;;;23.40;47.10;;;;;;4932760;29;20087;-61
2021/09/12 02:29:37;;;;;;;3.95;1.08;;;23.30;47.10;;;;;;4932376;29;20044;-62
2021/09/12 02:32:05;;;;;;;1.60;0.43;;;23.30;47.10;;;;;;4933581;29;20051;-60
2021/09/12 02:34:33;;;;;;;1.42;0.63;;;23.30;47.10;;;;;;4932473;29;20036;-61
2021/09/12 02:37:00;;;;;;;1.35;0.68;;;23.30;47.30;;;;;;4927108;29;20052;-60
2021/09/12 02:39:27;;;;;;;0.50;0.20;;;23.20;47.20;;;;;;4921541;29;20531;-60
2021/09/12 02:41:54;;;;;;;1.23;0.60;;;23.20;47.30;;;;;;4917183;29;20039;-61
2021/09/12 02:44:21;;;;;;;2.65;0.60;;;23.20;47.20;;;;;;4933564;29;20056;-60
2021/09/12 02:46:48;;;;;;;0.63;0.47;;;23.20;47.20;;;;;;4932214;29;20427;-59
2021/09/12 02:49:15;;;;;;;1.73;0.40;;;23.20;47.20;;;;;;4931149;29;20054;-60
2021/09/12 02:51:44;;;;;;;3.53;0.75;;;23.20;47.30;;;;;;4931711;29;20044;-60
2021/09/12 02:54:11;;;;;;;2.78;0.68;;;23.10;47.20;;;;;;4927085;29;20036;-60
2021/09/12 02:56:38;;;;;;;1.48;0.30;;;23.10;47.30;;;;;;4931818;29;20054;-55
2021/09/12 02:59:05;;;;;;;1.33;0.60;;;23.10;47.40;;;;;;4933004;29;20071;-60
2021/09/12 03:01:32;;;;;;;3.40;0.60;;;23.10;47.40;;;;;;4931211;29;20134;-60
2021/09/12 03:03:59;;;;;;;3.20;0.45;;;23.10;47.50;;;;;;4931804;29;20431;-61
2021/09/12 03:06:26;;;;;;;1.00;0.90;;;23.10;47.50;;;;;;4930710;29;20118;-61
2021/09/12 03:08:54;;;;;;;3.40;0.43;;;23.10;47.50;;;;;;4931365;29;20087;-61
2021/09/12 03:11:21;;;;;;;1.65;0.45;;;23.00;47.50;;;;;;4928893;29;20048;-60
2021/09/12 03:13:48;;;;;;;1.83;0.70;;;23.00;47.50;;;;;;4927281;29;20047;-60
2021/09/12 03:16:15;;;;;;;1.58;0.45;;;23.00;47.60;;;;;;4930888;29;20406;-60
2021/09/12 03:18:43;;;;;;;1.48;0.22;;;23.00;47.60;;;;;;4931052;29;20051;-59
2021/09/12 03:21:10;;;;;;;3.78;0.63;;;23.00;47.60;;;;;;4931629;29;20040;-60
2021/09/12 03:23:37;;;;;;;1.55;0.60;;;22.90;47.60;;;;;;4929577;29;20130;-60
2021/09/12 03:26:05;;;;;;;3.10;0.63;;;22.90;47.70;;;;;;4932283;29;20047;-59
2021/09/12 03:28:32;;;;;;;3.90;0.55;;;22.90;47.80;;;;;;4930466;29;20151;-61
2021/09/12 03:30:59;;;;;;;1.13;0.25;;;22.90;47.90;;;;;;4931117;29;20520;-61
2021/09/12 03:33:26;;;;;;;3.70;0.38;;;22.90;47.90;;;;;;4931100;29;20153;-60
2021/09/12 03:35:53;;;;;;;4.88;0.30;;;22.90;47.90;;;;;;4916375;29;20645;-61
2021/09/12 03:38:20;;;;;;;4.78;0.55;;;22.80;48.00;;;;;;4932336;29;20571;-60
2021/09/12 03:40:47;;;;;;;0.80;0.40;;;22.80;48.00;;;;;;4930744;29;20039;-60
2021/09/12 03:43:16;;;;;;;1.92;0.43;;;22.80;48.70;;;;;;4929507;29;20043;-60
2021/09/12 03:45:43;;;;;;;1.85;0.20;;;22.80;48.10;;;;;;4931546;29;20409;-61
2021/09/12 03:48:10;;;;;;;3.72;0.82;;;22.70;48.10;;;;;;4930944;29;20065;-60
2021/09/12 03:50:37;;;;;;;1.58;0.38;;;22.70;48.10;;;;;;4931283;29;20052;-60
2021/09/12 03:53:04;;;;;;;2.75;0.45;;;22.70;48.20;;;;;;4932082;29;20122;-61
2021/09/12 03:55:31;;;;;;;1.25;0.22;;;22.70;48.30;;;;;;4930660;29;20047;-61
2021/09/12 03:57:58;;;;;;;5.10;0.60;;;22.70;48.30;;;;;;4930556;29;20048;-59
2021/09/12 04:00:26;;;;;;;4.32;0.40;;;22.70;48.40;;;;;;4930522;29;20127;-62
2021/09/12 04:02:53;;;;;;;1.15;0.43;;;22.60;48.30;;;;;;4915039;29;20393;-61
2021/09/12 04:05:20;;;;;;;3.10;0.28;;;22.60;48.40;;;;;;4932240;29;20055;-60
2021/09/12 04:07:47;;;;;;;0.70;0.35;;;22.60;48.50;;;;;;4930578;29;20126;-59
2021/09/12 04:10:14;;;;;;;0.85;0.30;;;22.60;48.50;;;;;;4930473;29;20428;-59
2021/09/12 04:12:41;;;;;;;0.77;0.30;;;22.60;48.50;;;;;;4930744;29;20524;-59
2021/09/12 04:15:09;;;;;;;1.55;0.30;;;22.60;48.60;;;;;;4928006;29;20052;-59
2021/09/12 04:17:37;;;;;;;3.53;0.30;;;22.50;48.60;;;;;;4929976;29;20061;-59
2021/09/12 04:20:05;;;;;;;1.77;0.30;;;22.60;48.70;;;;;;4931619;29;20040;-59
2021/09/12 04:22:33;;;;;;;1.90;0.20;;;22.50;48.60;;;;;;4930267;29;20151;-59
2021/09/12 04:25:00;;;;;;;2.38;0.38;;;22.50;48.80;;;;;;4930443;29;20054;-59
2021/09/12 04:27:27;;;;;;;3.47;0.15;;;22.50;48.90;;;;;;4928007;29;20103;-59
2021/09/12 04:29:54;;;;;;;2.35;0.40;;;22.40;48.90;;;;;;4915440;29;20092;-59
2021/09/12 04:32:21;;;;;;;1.63;0.20;;;22.40;48.90;;;;;;4926880;29;20531;-59
2021/09/12 04:34:49;;;;;;;2.67;1.13;;;22.40;48.90;;;;;;4929747;29;20050;-59
2021/09/12 04:37:17;;;;;;;5.80;0.28;;;22.40;49.00;;;;;;4929990;29;20147;-58
2021/09/12 04:39:44;;;;;;;3.95;0.47;;;22.40;49.00;;;;;;4930165;29;20043;-58
2021/09/12 04:42:11;;;;;;;0.98;0.38;;;22.40;49.10;;;;;;4929944;29;20539;-58
2021/09/12 04:44:38;;;;;;;1.85;1.08;;;22.40;49.20;;;;;;4930068;29;20556;-57
2021/09/12 04:47:06;;;;;;;4.65;0.40;;;22.30;49.30;;;;;;4922502;29;20520;-58
2021/09/12 04:49:33;;;;;;;0.80;0.35;;;22.30;49.20;;;;;;4927553;29;20057;-58
2021/09/12 04:52:01;;;;;;;1.25;0.45;;;22.30;49.20;;;;;;4928472;29;20065;-59
2021/09/12 04:54:29;;;;;;;2.25;1.50;;;22.30;49.30;;;;;;4929920;29;20063;-58
2021/09/12 04:56:56;;;;;;;3.22;0.82;;;22.20;49.30;;;;;;4929503;29;20074;-57
2021/09/12 04:59:23;;;;;;;4.40;0.77;;;22.30;49.40;;;;;;4915241;29;20504;-57
2021/09/12 05:01:50;;;;;;;1.83;1.20;;;22.20;49.40;;;;;;4930179;29;20055;-58
2021/09/12 05:04:17;;;;;;;4.88;1.00;;;22.20;49.50;;;;;;4929732;29;20051;-59
2021/09/12 05:06:44;;;;;;;1.60;1.27;;;22.20;49.60;;;;;;4929469;29;20052;-59
2021/09/12 05:09:13;;;;;;;2.92;0.95;;;22.20;49.60;;;;;;4929486;29;20051;-59
2021/09/12 05:11:40;;;;;;;8.48;1.30;;;22.20;49.70;;;;;;4929651;29;20122;-60
2021/09/12 05:14:07;;;;;;;3.88;0.98;;;22.10;50.30;;;;;;4929159;29;20048;-59
2021/09/12 05:16:34;;;;;;;3.50;2.20;;;22.10;49.80;;;;;;4929290;29;20062;-60
2021/09/12 05:19:01;;;;;;;2.15;1.33;;;22.10;49.90;;;;;;4927475;29;20039;-60
2021/09/12 05:21:28;;;;;;;2.15;1.95;;;22.10;50.00;;;;;;4929268;29;20036;-59
2021/09/12 05:23:55;;;;;;;2.83;1.50;;;22.10;50.10;;;;;;4929920;29;20106;-59
2021/09/12 05:26:24;;;;;;;6.13;1.65;;;22.10;50.20;;;;;;4927216;29;20048;-59
2021/09/12 05:28:51;;;;;;;2.65;2.00;;;22.10;50.30;;;;;;4929848;29;20047;-60
2021/09/12 05:31:18;;;;;;;5.05;2.25;;;22.00;50.30;;;;;;4927894;29;20130;-56
2021/09/12 05:33:45;;;;;;;6.93;1.83;;;22.00;50.30;;;;;;4929522;29;20036;-59
2021/09/12 05:36:12;;;;;;;4.60;1.67;;;22.00;50.40;;;;;;4929731;29;20428;-59
2021/09/12 05:38:39;;;;;;;4.63;2.42;;;22.00;50.50;;;;;;4929596;29;20046;-58
2021/09/12 05:41:06;;;;;;;3.25;1.73;;;21.90;50.50;;;;;;4924809;29;20631;-59
2021/09/12 05:43:35;;;;;;;2.38;2.28;;;21.90;50.60;;;;;;4927166;29;20044;-59
2021/09/12 05:46:02;;;;;;;6.22;2.13;;;21.90;50.70;;;;;;4929806;29;20078;-58
2021/09/12 05:48:29;;;;;;;2.45;1.20;;;21.90;50.70;;;;;;4929799;29;20050;-59
2021/09/12 05:50:56;;;;;;;2.67;2.17;;;21.80;50.70;;;;;;4929537;29;20039;-60
2021/09/12 05:53:24;;;;;;;2.15;1.42;;;21.80;50.80;;;;;;4930927;29;20118;-59
2021/09/12 05:55:51;;;;;;;3.83;1.98;;;21.80;50.80;;;;;;4929338;29;20059;-59
2021/09/12 05:58:18;;;;;;;2.00;1.75;;;21.80;50.80;;;;;;4924078;29;20135;-59
2021/09/12 06:00:47;;;;;;;5.10;2.67;;;21.80;50.90;;;;;;4922361;29;20050;-59
2021/09/12 06:03:14;;;;;;;3.92;2.03;;;21.80;51.00;;;;;;4928571;29;20040;-59
2021/09/12 06:05:41;;;;;;;1.80;1.70;;;21.70;51.00;;;;;;4928087;29;20079;-60
2021/09/12 06:08:08;;;;;;;2.80;2.03;;;21.80;51.10;;;;;;4929655;29;20059;-60
2021/09/12 06:10:35;;;;;;;5.07;2.40;;;21.80;51.20;;;;;;4928012;29;20074;-60
2021/09/12 06:13:02;;;;;;;2.15;1.33;;;21.70;51.20;;;;;;4928445;29;20185;-59
2021/09/12 06:15:29;;;;;;;2.25;2.00;;;21.70;51.20;;;;;;4927165;29;20220;-60
2021/09/12 06:17:58;;;;;;;2.22;1.30;;;21.70;51.30;;;;;;4932207;29;20028;-59
2021/09/12 06:20:25;;;;;;;5.97;2.10;;;21.70;51.30;;;;;;4933317;29;20059;-59
2021/09/12 06:22:53;;;;;;;4.80;1.85;;;21.70;51.40;;;;;;4918685;29;20040;-60
2021/09/12 06:25:21;;;;;;;5.05;2.08;;;21.70;51.40;;;;;;4928605;29;20048;-58
2021/09/12 06:27:48;;;;;;;1.10;1.10;;;21.70;51.40;;;;;;4932142;29;20047;-60
2021/09/12 06:30:17;;;;;;;2.92;1.70;;;21.70;51.40;;;;;;4931943;29;20035;-62
2021/09/12 06:32:44;;;;;;;3.30;1.80;;;21.70;51.50;;;;;;4919160;29;20100;-60
2021/09/12 06:35:12;;;;;;;4.57;2.17;;;21.70;51.50;;;;;;4933528;29;20099;-61
2021/09/12 06:37:39;;;;;;;6.13;1.20;;;21.70;51.50;;;;;;4930112;29;20048;-61
2021/09/12 06:40:08;;;;;;;1.95;1.45;;;21.70;51.50;;;;;;4931929;29;20143;-60
2021/09/12 06:42:35;;;;;;;1.20;0.80;;;21.70;51.50;;;;;;4928877;29;20059;-60
2021/09/12 06:45:02;;;;;;;3.25;0.77;;;21.70;51.50;;;;;;4932321;29;20501;-60
2021/09/12 06:47:29;;;;;;;1.38;0.65;;;21.70;51.40;;;;;;4932261;29;20122;-60
2021/09/12 06:49:57;;;;;;;2.35;0.63;;;21.70;51.50;;;;;;4932972;29;20048;-60
2021/09/12 06:52:26;;;;;;;6.90;1.48;;;21.80;51.50;;;;;;4931648;29;20123;-60
2021/09/12 06:54:53;;;;;;;4.00;0.90;;;21.80;51.60;;;;;;4931226;29;20039;-61
2021/09/12 06:57:20;;;;;;;2.35;0.80;;;21.70;51.60;;;;;;4931723;29;20070;-60
2021/09/12 06:59:47;;;;;;;2.85;0.50;;;21.80;51.60;;;;;;4931862;29;20079;-61
2021/09/12 07:02:14;;;;;;;1.35;0.30;;;21.80;51.70;;;;;;4932373;29;20044;-60
2021/09/12 07:04:41;;;;;;;3.33;0.63;;;21.80;51.60;;;;;;4931757;29;20155;-60
2021/09/12 07:07:08;;;;;;;0.60;0.40;;;21.90;51.60;;;;;;4931587;29;20040;-61
2021/09/12 07:09:36;;;;;;;1.38;0.47;;;21.90;51.60;;;;;;4930003;29;20504;-59
2021/09/12 07:12:04;;;;;;;1.95;0.32;;;21.90;51.50;;;;;;4930257;29;20040;-59
2021/09/12 07:14:31;;;;;;;3.05;0.50;;;21.90;51.50;;;;;;4931587;29;20043;-59
2021/09/12 07:16:58;;;;;;;1.30;0.30;;;22.00;51.50;;;;;;4931316;29;20160;-61
2021/09/12 07:19:25;;;;;;;2.28;0.40;;;22.00;51.40;;;;;;4931308;29;20046;-59
2021/09/12 07:21:53;;;;;;;0.30;0.20;;;22.00;51.40;;;;;;4929882;29;20048;-59
2021/09/12 07:24:20;;;;;;;1.05;0.20;;;22.10;51.40;;;;;;4931555;29;20039;-63
2021/09/12 07:26:48;;;;;;;3.53;0.85;;;22.10;51.50;;;;;;4926539;29;20040;-61
2021/09/12 07:29:15;;;;;;;2.53;0.50;;;22.10;51.40;;;;;;4932186;29;20047;-59
2021/09/12 07:31:42;;;;;;;5.35;1.05;;;22.10;51.30;;;;;;4930928;29;20047;-64
2021/09/12 07:34:09;;;;;;;2.58;0.95;;;22.20;51.30;;;;;;4930894;29;20047;-61
2021/09/12 07:36:36;;;;;;;2.25;0.65;;;22.10;51.40;;;;;;4929211;29;20050;-59
2021/09/12 07:39:03;;;;;;;6.57;1.67;;;22.10;51.60;;;;;;4915248;29;20092;-61
2021/09/12 07:41:31;;;;;;;10.57;0.90;;;22.10;51.90;;;;;;4919645;29;20044;-61
2021/09/12 07:44:00;;;;;;;3.60;0.77;;;22.20;52.30;;;;;;4922010;29;20135;-60
2021/09/12 07:46:27;;;;;;;4.00;0.93;;;22.20;52.40;;;;;;4925955;29;20050;-65
2021/09/12 07:48:54;;;;;;;5.28;1.05;;;22.20;52.40;;;;;;4920110;29;20596;-60
2021/09/12 07:51:21;;;;;;;1.60;0.70;;;22.30;52.40;;;;;;4919139;29;20044;-60
2021/09/12 07:53:48;;;;;;;1.67;0.32;;;22.30;52.30;;;;;;4920555;29;20429;-60
2021/09/12 07:56:15;;;;;;;1.67;0.52;;;22.30;52.20;;;;;;4919282;29;20036;-60
2021/09/12 07:58:42;;;;;;;2.38;0.85;;;22.40;52.20;;;;;;4918884;29;20423;-60
2021/09/12 08:01:12;;;;;;;2.40;1.00;;;22.50;52.00;;;;;;4918167;29;20037;-60
2021/09/12 08:03:40;;;;;;;2.85;0.60;;;22.50;52.00;;;;;;4920677;29;20055;-60
2021/09/12 08:06:09;;;;;;;6.00;1.48;;;22.50;52.00;;;;;;4919560;29;20036;-59
2021/09/12 08:08:36;;;;;;;4.05;0.80;;;22.60;51.90;;;;;;4919241;29;20542;-60
2021/09/12 08:11:03;;;;;;;4.75;0.82;;;22.60;51.90;;;;;;4917829;29;20055;-61
2021/09/12 08:13:30;;;;;;;4.43;0.90;;;22.60;51.70;;;;;;4920159;29;20041;-60
2021/09/12 08:15:57;;;;;;;5.00;0.80;;;22.70;51.70;;;;;;4919547;29;20689;-59
2021/09/12 08:18:26;;;;;;;1.45;0.50;;;22.70;51.60;;;;;;4923851;29;20044;-60
2021/09/12 08:20:53;;;;;;;2.40;0.70;;;22.70;51.50;;;;;;4921329;29;20040;-59
2021/09/12 08:23:20;;;;;;;2.53;0.52;;;22.80;51.50;;;;;;4919279;29;20051;-59
2021/09/12 08:25:47;;;;;;;3.85;0.93;;;22.80;51.40;;;;;;4923509;29;20067;-58
2021/09/12 08:28:14;;;;;;;3.30;0.40;;;22.80;51.20;;;;;;4922576;29;20051;-58
2021/09/12 08:30:41;;;;;;;6.50;0.45;;;22.90;51.00;;;;;;4925138;29;20039;-60
2021/09/12 08:33:12;;;;;;;4.13;0.50;;;22.90;51.00;;;;;;4923406;29;20403;-61
2021/09/12 08:35:41;;;;;;;1.70;0.25;;;23.00;50.80;;;;;;4925174;29;20095;-60
2021/09/12 08:38:09;;;;;;;2.03;0.25;;;23.00;50.50;;;;;;4921787;29;20118;-60
2021/09/12 08:40:36;;;;;;;2.00;0.65;;;23.00;50.40;;;;;;4918340;29;20047;-60
2021/09/12 08:43:06;;;;;;;4.60;0.30;;;23.00;50.20;;;;;;4922342;29;20039;-60
2021/09/12 08:45:34;;;;;;;0.77;0.30;;;23.00;50.20;;;;;;4921817;29;20054;-60
2021/09/12 08:48:01;;;;;;;0.82;0.35;;;23.10;49.90;;;;;;4921393;29;20047;-59
2021/09/12 08:50:28;;;;;;;3.22;1.08;;;23.20;49.80;;;;;;4918040;29;20079;-59
2021/09/12 08:52:58;;;;;;;1.65;0.50;;;23.20;49.60;;;;;;4921238;29;20074;-60
2021/09/12 08:55:25;;;;;;;0.93;0.22;;;23.20;49.40;;;;;;4920704;29;20481;-60
2021/09/12 08:57:54;;;;;;;2.05;0.57;;;23.20;49.00;;;;;;4922549;29;20146;-60
2021/09/12 09:00:24;;;;;;;3.10;0.55;;;23.30;48.90;;;;;;4923740;29;20048;-59
2021/09/12 09:02:57;;;;;;;2.00;0.15;;;23.30;48.50;;;;;;4922933;29;20044;-60
2021/09/12 09:05:30;;;;;;;5.03;0.20;;;23.40;48.20;;;;;;4925215;29;20523;-59
2021/09/12 09:08:07;;;;;;;0.30;0.20;;;23.40;48.00;;;;;;4923610;29;20229;-59
2021/09/12 09:10:43;;;;;;;0.95;0.20;;;23.40;47.80;;;;;;4924947;29;20131;-60
2021/09/12 09:13:31;;;;;;;1.08;0.38;;;23.40;47.60;;;;;;4924895;29;20055;-60
2021/09/12 09:15:59;;;;;;;0.60;0.22;;;23.50;47.40;;;;;;4924912;29;20110;-59
2021/09/12 09:18:35;;;;;;;2.53;0.50;;;23.50;47.40;;;;;;4925198;29;20127;-60
2021/09/12 09:21:23;;;;;;;1.00;0.20;;;23.50;47.10;;;;;;4924610;29;20131;-60
2021/09/12 09:24:17;;;;;;;2.72;0.22;;;23.50;47.10;;;;;;4923770;29;20048;-60
2021/09/12 09:26:46;;;;;;;2.20;0.10;;;23.50;47.00;;;;;;4925627;29;20532;-54
2021/09/12 09:29:13;;;;;;;1.58;0.30;;;23.60;47.10;;;;;;4929353;29;20054;-55
2021/09/12 09:31:41;;;;;;;2.75;0.20;;;23.60;46.90;;;;;;4929396;29;20087;-53
2021/09/12 09:34:20;;;;;;;1.58;0.20;;;23.70;46.90;;;;;;4929028;29;20050;-54
2021/09/12 09:36:49;;;;;;;1.33;0.17;;;23.70;46.50;;;;;;4928791;29;20099;-55
2021/09/12 09:39:34;;;;;;;1.45;0.10;;;23.70;46.40;;;;;;4927598;29;20040;-52
2021/09/12 09:42:02;;;;;;;1.80;0.25;;;23.80;46.30;;;;;;4917873;29;20442;-52
2021/09/12 09:44:29;;;;;;;5.88;0.30;;;23.80;46.20;;;;;;4920839;29;20070;-54
2021/09/12 09:46:56;;;;;;;2.13;0.47;;;23.80;46.00;;;;;;4924595;29;20882;-54
2021/09/12 09:49:25;;;;;;;2.13;0.20;;;23.80;45.90;;;;;;4923571;29;20043;-50
2021/09/12 09:51:54;;;;;;;1.15;0.20;;;23.90;46.00;;;;;;4929686;29;20567;-51
2021/09/12 09:54:26;;;;;;;2.08;0.65;;;23.90;46.00;;;;;;4932845;29;20048;-58
2021/09/12 09:56:54;;;;;;;2.70;0.30;;;24.00;46.00;;;;;;4933019;29;20071;-42
2021/09/12 09:59:23;;;;;;;4.78;0.40;;;24.00;45.90;;;;;;4934333;29;20516;-57
2021/09/12 10:01:52;;;;;;;4.53;0.80;;;24.00;46.10;;;;;;4932587;29;20040;-52
2021/09/12 10:04:21;;;;;;;9.98;0.40;;;24.10;46.40;;;;;;4928589;29;20047;-48
2021/09/12 10:06:49;;;;;;;9.05;0.20;;;24.10;46.70;;;;;;4926861;29;20133;-47
2021/09/12 10:09:19;;;;;;;8.50;1.02;;;24.20;46.80;;;;;;4929849;29;20036;-51
2021/09/12 10:11:51;;;;;;;12.90;0.50;;;24.20;46.90;;;;;;4932351;29;21003;-51
2021/09/12 10:14:25;;;;;;;5.35;0.30;;;24.30;47.20;;;;;;4934026;29;20066;-50
2021/09/12 10:16:53;;;;;;;12.52;0.85;;;24.40;47.30;;;;;;4932776;29;20071;-49
2021/09/12 10:19:33;;;;;;;9.35;0.65;;;24.40;47.30;;;;;;4932518;29;20104;-50
2021/09/12 10:22:06;;;;;;;5.03;0.65;;;24.50;47.30;;;;;;4932456;29;20044;-50
2021/09/12 10:24:33;;;;;;;5.97;1.40;;;24.50;47.40;;;;;;4932784;29;20155;-53
2021/09/12 10:27:31;;;;;;;7.50;2.38;;;24.60;47.30;;;;;;4932751;29;20724;-52
2021/09/12 10:29:59;;;;;;;5.43;2.22;;;24.70;47.20;;;;;;4915552;29;20105;-52
2021/09/12 10:32:34;;;;;;;12.15;2.83;;;24.70;47.30;;;;;;4933462;29;20044;-53
2021/09/12 10:35:19;;;;;;;2.67;2.08;;;24.70;47.20;;;;;;4923087;29;20054;-53
2021/09/12 10:37:59;;;;;;;4.57;2.40;;;24.80;47.10;;;;;;4931646;29;20048;-51
2021/09/12 10:40:53;;;;;;;4.35;1.52;;;24.80;47.10;;;;;;4932285;29;20786;-53
2021/09/12 10:43:44;;;;;;;7.40;1.73;;;24.90;47.10;;;;;;4931853;29;20126;-52
2021/09/12 10:46:25;;;;;;;2.67;1.88;;;24.90;47.00;;;;;;4932624;29;20067;-50
2021/09/12 10:49:29;;;;;;;2.53;1.63;;;25.00;47.00;;;;;;4931804;29;20040;-49
2021/09/12 10:51:56;;;;;;;2.65;1.42;;;25.00;46.80;;;;;;4932391;29;20154;-51
2021/09/12 10:54:23;;;;;;;5.75;2.13;;;25.00;46.80;;;;;;4932425;29;20048;-50
2021/09/12 10:57:06;;;;;;;2.05;1.27;;;25.10;46.80;;;;;;4930003;29;20043;-51
2021/09/12 10:59:35;;;;;;;4.43;1.27;;;25.10;46.60;;;;;;4929857;29;20095;-48
2021/09/12 11:02:02;;;;;;;3.05;1.23;;;25.20;46.70;;;;;;4933005;29;20131;-51
2021/09/12 11:04:30;;;;;;;1.63;0.85;;;25.20;46.70;;;;;;4931682;29;20735;-49
2021/09/12 11:07:05;;;;;;;2.05;1.40;;;25.30;46.60;;;;;;4931422;29;20036;-48
2021/09/12 11:09:33;;;;;;;2.10;1.20;;;25.30;46.60;;;;;;4931043;29;20116;-52
2021/09/12 11:12:03;;;;;;;2.35;1.02;;;25.30;46.50;;;;;;4929573;29;20046;-51
2021/09/12 11:14:31;;;;;;;2.25;1.00;;;25.30;46.40;;;;;;4932398;29;20127;-50
2021/09/12 11:17:07;;;;;;;1.90;1.75;;;25.40;46.40;;;;;;4931954;29;20528;-49
2021/09/12 11:19:34;;;;;;;3.65;0.75;;;25.40;46.30;;;;;;4930651;29;20155;-51
2021/09/12 11:22:01;;;;;;;1.23;0.75;;;25.40;46.30;;;;;;4930390;29;20036;-57
2021/09/12 11:24:30;;;;;;;1.25;0.68;;;25.50;46.20;;;;;;4931962;29;20103;-54
2021/09/12 11:26:59;;;;;;;1.15;0.40;;;25.50;46.10;;;;;;4918527;29;20047;-53
2021/09/12 11:29:29;;;;;;;2.10;0.73;;;25.60;46.20;;;;;;4927747;29;20473;-49
2021/09/12 11:32:04;;;;;;;1.10;0.63;;;25.60;46.10;;;;;;4931621;29;20059;-53
2021/09/12 11:34:34;;;;;;;0.43;0.43;;;25.60;46.00;;;;;;4931832;29;20039;-51
2021/09/12 11:37:03;;;;;;;0.52;0.35;;;25.70;46.00;;;;;;4931372;29;20040;-51
2021/09/12 11:39:31;;;;;;;0.90;0.40;;;25.70;46.00;;;;;;4931354;29;20043;-50
2021/09/12 11:42:01;;;;;;;0.40;0.32;;;25.70;45.90;;;;;;4930943;29;20043;-53
2021/09/12 11:44:32;;;;;;;2.05;0.57;;;25.80;45.90;;;;;;4932090;29;20493;-50
2021/09/12 11:47:00;;;;;;;2.13;0.50;;;25.80;45.80;;;;;;4926617;29;20044;-52
2021/09/12 11:49:27;;;;;;;0.93;0.43;;;25.80;45.80;;;;;;4927997;29;20051;-52
2021/09/12 11:51:56;;;;;;;3.72;0.47;;;25.80;45.70;;;;;;4931065;29;20044;-51
2021/09/12 11:54:26;;;;;;;1.63;0.40;;;25.90;45.70;;;;;;4931448;29;20083;-50
2021/09/12 11:56:55;;;;;;;0.85;0.30;;;25.90;45.70;;;;;;4930781;29;20049;-52
2021/09/12 11:59:23;;;;;;;0.80;0.40;;;26.00;45.70;;;;;;4928117;29;20059;-53
2021/09/12 12:01:51;;;;;;;0.68;0.30;;;26.00;45.60;;;;;;4930647;29;20119;-50
2021/09/12 12:04:19;;;;;;;0.60;0.38;;;26.00;45.60;;;;;;4930952;29;20040;-51
2021/09/12 12:06:47;;;;;;;0.80;0.50;;;26.00;45.50;;;;;;4930581;29;20147;-52
2021/09/12 12:09:19;;;;;;;1.45;0.55;;;26.10;45.60;;;;;;4930286;29;20394;-55
2021/09/12 12:11:47;;;;;;;2.25;0.55;;;26.10;45.50;;;;;;4930881;29;20456;-54
2021/09/12 12:14:25;;;;;;;0.63;0.63;;;26.10;45.50;;;;;;4932493;29;20422;-53
2021/09/12 12:16:54;;;;;;;2.00;0.98;;;26.20;45.50;;;;;;4930708;29;20428;-53
2021/09/12 12:19:22;;;;;;;1.90;0.75;;;26.20;45.40;;;;;;4930526;29;20103;-55
2021/09/12 12:21:51;;;;;;;1.95;0.80;;;26.20;45.40;;;;;;4930828;29;20139;-52
2021/09/12 12:24:24;;;;;;;1.98;1.05;;;26.20;45.30;;;;;;4930890;29;20040;-53
2021/09/12 12:26:54;;;;;;;2.50;0.70;;;26.20;45.20;;;;;;4930316;29;20512;-55
2021/09/12 12:29:27;;;;;;;0.70;0.70;;;26.20;45.20;;;;;;4932150;29;20134;-54
2021/09/12 12:31:55;;;;;;;1.77;0.63;;;26.30;45.20;;;;;;4923238;29;20100;-53
2021/09/12 12:34:40;;;;;;;0.80;0.80;;;26.30;45.20;;;;;;4926190;29;20046;-52
2021/09/12 12:37:08;;;;;;;1.27;0.60;;;26.40;45.20;;;;;;4929664;29;20075;-53
2021/09/12 12:39:37;;;;;;;2.55;0.50;;;26.40;45.20;;;;;;4930574;29;20058;-53
2021/09/12 12:42:05;;;;;;;0.90;0.43;;;26.40;45.10;;;;;;4930766;29;20067;-54
2021/09/12 12:44:41;;;;;;;1.52;0.50;;;26.50;45.10;;;;;;4930540;29;20044;-54
2021/09/12 12:47:08;;;;;;;;;;;26.50;45.10;;;;;;4930128;29;20078;-54
2021/09/12 12:49:36;;;;;;;1.15;0.47;;;26.50;45.10;;;;;;4930199;29;19938;-53
2021/09/12 12:52:15;;;;;;;1.95;0.50;;;26.40;45.10;;;;;;4930040;29;20087;-53
2021/09/12 12:54:43;;;;;;;3.95;0.40;;;26.50;45.10;;;;;;4929958;29;20047;-54
2021/09/12 12:57:13;;;;;;;0.73;0.28;;;26.50;45.00;;;;;;4930121;29;20040;-54